Rostein — LLHI — position and weather

sailwx.info

Track history (hours):
 
Tides and Currents Weather Stations Pressure Air Temp Water Temp Dewpoint Dewpoint Depression Visibility Wind Speed Wind Dir Waves Ship Positions

Rostein

Last reported at 2018-Apr-20 10:29 UTC. Time now 2018-Apr-20 10:58 UTC.
Position N 70°03' E 020°57'.

Length 57 m; draft 5 m.

Type: Fishing. MMSI: 257210000.

Date/timePositionNaut miles runAvg speedWind from/ knotsBaromVisibWave heightAir tempDewpointWater temp
2018-Apr-20 10:29N 70°03' E 020°57'0 0.0
2018-Apr-20 10:00N 70°03' E 020°57'0 0.0
2018-Apr-20 09:30N 70°03' E 020°57'0 0.8
2018-Apr-20 09:01N 70°03' E 020°56'2 3.2
2018-Apr-20 08:30N 70°02' E 021°00'0 0.7
2018-Apr-20 08:00N 70°02' E 020°59'0 0.1
2018-Apr-20 07:30N 70°02' E 020°59'4 7.5
2018-Apr-20 07:00N 69°58' E 021°03'5 9.7
2018-Apr-20 06:30N 69°55' E 020°52'3 5.3
2018-Apr-20 06:00N 69°57' E 020°45'0 0.0
2018-Apr-20 05:29N 69°57' E 020°45'0 0.0
2018-Apr-20 05:00N 69°57' E 020°45'0 0.0
2018-Apr-20 04:30N 69°57' E 020°45'0 0.0
2018-Apr-20 04:00N 69°57' E 020°45'1 1.7
2018-Apr-20 03:30N 69°56' E 020°44'1 1.1
2018-Apr-20 03:00N 69°56' E 020°46'2 4.4
2018-Apr-20 02:30N 69°55' E 020°52'4 7.1
2018-Apr-20 02:00N 69°58' E 021°00'4 8.4
2018-Apr-20 01:30N 70°00' E 021°10'4 8.4
2018-Apr-20 01:00N 70°02' E 021°21'5 9.5
2018-Apr-20 00:30N 70°03' E 021°35'5 9.8
2018-Apr-20 00:00N 70°03' E 021°49'1 2.5
2018-Apr-19 23:30N 70°04' E 021°53'0 0.0
2018-Apr-19 22:59N 70°04' E 021°53'3 6.1
2018-Apr-19 22:28N 70°01' E 021°47'5 9.6
2018-Apr-19 22:00N 69°57' E 021°53'0 0.1
2018-Apr-19 21:30N 69°57' E 021°53'0 0.0
2018-Apr-19 21:00N 69°57' E 021°53'0 0.2
2018-Apr-19 20:30N 69°57' E 021°53'510.1
2018-Apr-19 20:00N 69°59' E 021°39'611.0
2018-Apr-19 19:29N 70°02' E 021°24'510.3
2018-Apr-19 19:00N 70°02' E 021°10'510.7
2018-Apr-19 18:30N 70°03' E 020°55'611.7
2018-Apr-19 18:00N 70°01' E 020°38'611.6
2018-Apr-19 17:30N 69°60' E 020°22'611.7
2018-Apr-19 17:00N 69°57' E 020°07'611.9
2018-Apr-19 16:30N 69°53' E 019°54'611.6
2018-Apr-19 16:00N 69°50' E 019°40'611.4
2018-Apr-19 15:30N 69°48' E 019°24'611.3
2018-Apr-19 15:00N 69°46' E 019°10'611.3
2018-Apr-19 14:30N 69°41' E 019°01'2 3.7
2018-Apr-19 14:00N 69°39' E 018°58'0 0.0
2018-Apr-19 13:30N 69°39' E 018°58'0 0.0
2018-Apr-19 13:00N 69°39' E 018°58'0 0.0
2018-Apr-19 12:30N 69°39' E 018°58'2 3.9
2018-Apr-19 12:00N 69°37' E 018°56'613.0
2018-Apr-19 11:30N 69°33' E 018°42'612.7
2018-Apr-19 11:00N 69°32' E 018°24'611.7
2018-Apr-19 10:30N 69°31' E 018°07'612.0
2018-Apr-19 09:59N 69°35' E 017°53'611.7
2018-Apr-19 09:30N 69°36' E 017°37'612.0
2018-Apr-19 09:00N 69°35' E 017°21'612.5
2018-Apr-19 08:30N 69°32' E 017°05'612.2
2018-Apr-19 08:00N 69°26' E 016°56'5 9.9
2018-Apr-19 07:30N 69°21' E 016°56'4 7.5
2018-Apr-19 07:00N 69°20' E 017°06'0 0.0
2018-Apr-19 06:30N 69°20' E 017°06'3 5.6
2018-Apr-19 06:00N 69°20' E 016°58'4 8.4
2018-Apr-19 05:30N 69°24' E 016°52'510.0
2018-Apr-19 04:59N 69°29' E 016°57'5 9.7
2018-Apr-19 04:30N 69°32' E 017°06'510.3
2018-Apr-19 04:00N 69°35' E 017°19'5 9.7
2018-Apr-19 03:29N 69°36' E 017°33'510.1
2018-Apr-19 03:00N 69°36' E 017°47'4 8.6
2018-Apr-19 02:30N 69°33' E 017°56'5 9.3
2018-Apr-19 02:00N 69°28' E 017°53'0 0.0
2018-Apr-19 01:30N 69°28' E 017°53'0 0.0
2018-Apr-19 01:00N 69°28' E 017°53'0 0.0
2018-Apr-19 00:30N 69°28' E 017°53'2 4.4
2018-Apr-19 00:00N 69°31' E 017°55'5 9.8
2018-Apr-18 23:27N 69°35' E 017°50'612.3
2018-Apr-18 23:00N 69°36' E 017°34'712.3
2018-Apr-18 22:29N 69°34' E 017°16'612.6
2018-Apr-18 22:00N 69°31' E 017°02'612.1
2018-Apr-18 21:30N 69°26' E 016°54'510.1
2018-Apr-18 21:00N 69°21' E 016°56'3 6.6
2018-Apr-18 20:30N 69°20' E 017°06'0 0.0
2018-Apr-18 19:59N 69°20' E 017°06'2 3.3
2018-Apr-18 19:30N 69°21' E 017°01'4 8.5
2018-Apr-18 19:00N 69°23' E 016°52'5 9.9
2018-Apr-18 18:30N 69°28' E 016°56'5 9.5
2018-Apr-18 18:00N 69°32' E 017°03'510.0
2018-Apr-18 17:29N 69°34' E 017°16'5 9.9
2018-Apr-18 16:59N 69°37' E 017°29'510.2
2018-Apr-18 16:30N 69°36' E 017°43'5 9.4
2018-Apr-18 15:59N 69°34' E 017°56'5 9.9
2018-Apr-18 15:30N 69°29' E 017°53'1 1.3
2018-Apr-18 15:00N 69°28' E 017°53'0 0.0
2018-Apr-18 14:29N 69°28' E 017°53'0 0.0
2018-Apr-18 13:59N 69°28' E 017°53'0 0.0
2018-Apr-18 13:30N 69°28' E 017°53'2 3.9
2018-Apr-18 13:00N 69°30' E 017°55'510.4
2018-Apr-18 12:29N 69°31' E 018°10'612.2
2018-Apr-18 12:00N 69°32' E 018°27'611.7
2018-Apr-18 11:30N 69°33' E 018°43'610.7
2018-Apr-18 10:59N 69°37' E 018°55'4 7.3
2018-Apr-18 10:30N 69°40' E 019°00'612.0
2018-Apr-18 10:00N 69°45' E 019°08'612.2
2018-Apr-18 09:30N 69°48' E 019°24'612.4
2018-Apr-18 09:00N 69°50' E 019°40'612.4
2018-Apr-18 08:30N 69°54' E 019°55'612.4
2018-Apr-18 08:00N 69°58' E 020°09'612.3
2018-Apr-18 07:30N 70°00' E 020°26'612.4
2018-Apr-18 07:00N 70°02' E 020°43'611.8
2018-Apr-18 06:30N 70°04' E 020°60'2 3.7
2018-Apr-18 06:00N 70°02' E 020°59'0 0.0
2018-Apr-18 05:30N 70°02' E 020°59'2 3.3
2018-Apr-18 04:59N 70°01' E 021°04'4 9.2
2018-Apr-18 04:30N 69°57' E 020°58'4 8.8
2018-Apr-18 04:00N 69°56' E 020°46'1 1.7
2018-Apr-18 03:30N 69°57' E 020°45'0 0.0
2018-Apr-18 03:00N 69°57' E 020°45'0 0.0
2018-Apr-18 02:30N 69°57' E 020°45'2 3.6
2018-Apr-18 01:59N 69°55' E 020°49'510.6
2018-Apr-18 01:30N 69°58' E 021°01'611.8
2018-Apr-18 01:00N 70°01' E 021°15'612.0
2018-Apr-18 00:28N 70°03' E 021°33'611.9
2018-Apr-18 00:00N 70°04' E 021°49'1 2.1
2018-Apr-17 23:30N 70°04' E 021°53'0 0.1
2018-Apr-17 23:00N 70°04' E 021°52'4 7.4
2018-Apr-17 22:28N 70°00' E 021°49'3 3.8
2018-Apr-17 21:39N 69°57' E 021°53'0 0.0
2018-Apr-17 21:22N 69°57' E 021°53'0 0.0
2018-Apr-17 20:42N 69°57' E 021°53'1 5.4
2018-Apr-17 20:30N 69°57' E 021°50'612.1
2018-Apr-17 19:59N 70°00' E 021°34'612.3
2018-Apr-17 19:30N 70°03' E 021°18'612.4
2018-Apr-17 19:00N 70°04' E 021°00'510.5
2018-Apr-17 18:30N 70°05' E 020°46'0 0.0
2018-Apr-17 18:00N 70°05' E 020°46'2 3.3
2018-Apr-17 17:30N 70°07' E 020°46'510.2
2018-Apr-17 16:59N 70°11' E 020°55'510.4
2018-Apr-17 16:30N 70°14' E 021°08'510.5
2018-Apr-17 16:00N 70°17' E 021°20'510.2
2018-Apr-17 15:30N 70°20' E 021°31'510.0
2018-Apr-17 15:00N 70°24' E 021°42'5 9.9
2018-Apr-17 14:28N 70°25' E 021°57'510.5
2018-Apr-17 14:00N 70°27' E 022°11'510.4
2018-Apr-17 13:30N 70°28' E 022°27'510.5
2018-Apr-17 13:00N 70°29' E 022°42'5 9.8
2018-Apr-17 12:29N 70°31' E 022°56'5 9.6
2018-Apr-17 12:00N 70°34' E 023°06'510.1
2018-Apr-17 11:28N 70°39' E 023°14'510.1
2018-Apr-17 10:59N 70°42' E 023°24'510.5
2018-Apr-17 10:30N 70°45' E 023°37'510.5
2018-Apr-17 10:00N 70°49' E 023°49'510.7
2018-Apr-17 09:30N 70°52' E 024°01'611.4
2018-Apr-17 09:00N 70°56' E 024°14'611.1
2018-Apr-17 08:30N 70°60' E 024°27'510.2
2018-Apr-17 08:00N 71°01' E 024°42'611.7
2018-Apr-17 07:30N 70°59' E 024°59'510.8
2018-Apr-17 07:00N 70°55' E 025°11'5 9.8
2018-Apr-17 06:30N 70°51' E 025°15'1 1.4
2018-Apr-17 06:00N 70°50' E 025°15'0 0.0
2018-Apr-17 05:30N 70°50' E 025°15'0 0.0
2018-Apr-17 04:59N 70°50' E 025°15'0 0.0
2018-Apr-17 04:30N 70°50' E 025°15'2 4.7
2018-Apr-17 04:00N 70°52' E 025°15'611.7
2018-Apr-17 03:30N 70°57' E 025°06'611.9
2018-Apr-17 03:00N 70°60' E 024°50'612.1
2018-Apr-17 02:29N 71°01' E 024°31'612.3
2018-Apr-17 02:00N 70°57' E 024°18'612.9
2018-Apr-17 01:30N 70°53' E 024°03'612.2
2018-Apr-17 00:59N 70°49' E 023°49'612.4
2018-Apr-17 00:30N 70°45' E 023°35'612.6
2018-Apr-17 00:00N 70°41' E 023°20'612.5
2018-Apr-16 23:29N 70°36' E 023°08'612.6
2018-Apr-16 22:59N 70°31' E 022°57'612.7
2018-Apr-16 22:30N 70°29' E 022°39'712.5
2018-Apr-16 21:59N 70°27' E 022°20'612.2
2018-Apr-16 21:30N 70°26' E 022°03'612.4
2018-Apr-16 21:00N 70°24' E 021°45'611.7
2018-Apr-16 20:30N 70°21' E 021°31'612.1
2018-Apr-16 20:00N 70°17' E 021°18'612.2
2018-Apr-16 19:30N 70°14' E 021°01'712.4
2018-Apr-16 18:58N 70°09' E 020°49'4 8.5
2018-Apr-16 18:30N 70°05' E 020°46'0 0.0
2018-Apr-16 18:00N 70°05' E 020°46'2 3.1
2018-Apr-16 17:30N 70°07' E 020°46'510.2
2018-Apr-16 17:00N 70°11' E 020°55'510.6
2018-Apr-16 16:30N 70°14' E 021°08'510.7
2018-Apr-16 16:00N 70°17' E 021°21'510.4
2018-Apr-16 15:30N 70°21' E 021°31'510.4
2018-Apr-16 15:00N 70°24' E 021°43'510.1
2018-Apr-16 14:29N 70°26' E 021°58'510.7
2018-Apr-16 14:00N 70°27' E 022°13'510.2
2018-Apr-16 13:30N 70°28' E 022°28'510.2
2018-Apr-16 13:00N 70°29' E 022°43'5 9.8
2018-Apr-16 12:30N 70°31' E 022°57'5 9.8
2018-Apr-16 12:00N 70°35' E 023°06'5 9.8
2018-Apr-16 11:29N 70°39' E 023°15'5 9.7
2018-Apr-16 11:00N 70°42' E 023°25'510.0
2018-Apr-16 10:30N 70°45' E 023°37'510.3
2018-Apr-16 10:00N 70°49' E 023°48'510.6
2018-Apr-16 09:30N 70°52' E 024°00'511.0
2018-Apr-16 09:00N 70°56' E 024°13'511.0
2018-Apr-16 08:30N 70°59' E 024°26'510.2
2018-Apr-16 07:58N 71°01' E 024°42'1410.3
2018-Apr-16 06:34N 70°52' E 025°15'1 9.6
2018-Apr-16 06:30N 70°51' E 025°16'1 2.2
2018-Apr-16 06:00N 70°50' E 025°15'0 0.0
2018-Apr-16 05:30N 70°50' E 025°15'0 0.0
2018-Apr-16 05:00N 70°50' E 025°15'2 3.9
2018-Apr-16 04:30N 70°52' E 025°15'611.3
2018-Apr-16 04:00N 70°57' E 025°07'611.4
2018-Apr-16 03:30N 70°60' E 024°52'612.1
2018-Apr-16 03:00N 71°02' E 024°34'612.0
2018-Apr-16 02:30N 70°58' E 024°19'612.5
2018-Apr-16 02:00N 70°54' E 024°05'612.4
2018-Apr-16 01:30N 70°50' E 023°51'612.7
2018-Apr-16 01:00N 70°45' E 023°36'613.1
2018-Apr-16 00:30N 70°41' E 023°22'713.1
2018-Apr-15 23:59N 70°36' E 023°09'612.7
2018-Apr-15 23:30N 70°31' E 022°57'613.0
2018-Apr-15 23:00N 70°29' E 022°39'712.7
2018-Apr-15 22:29N 70°27' E 022°20'612.4
2018-Apr-15 22:00N 70°26' E 022°02'612.2
2018-Apr-15 21:30N 70°24' E 021°45'612.2
2018-Apr-15 21:00N 70°20' E 021°31'712.4
2018-Apr-15 20:28N 70°16' E 021°17'510.1
2018-Apr-15 20:00N 70°11' E 021°12'612.0
2018-Apr-15 19:29N 70°07' E 021°24'611.9
2018-Apr-15 19:00N 70°04' E 021°38'5 9.6
2018-Apr-15 18:30N 70°04' E 021°53'0 0.0
2018-Apr-15 18:00N 70°04' E 021°53'1 2.0
2018-Apr-15 17:30N 70°04' E 021°50'4 8.0
2018-Apr-15 17:00N 69°60' E 021°49'3 3.0
2018-Apr-15 16:05N 69°57' E 021°53'0 0.0
2018-Apr-15 15:27N 69°57' E 021°53'4 8.3
2018-Apr-15 15:00N 70°01' E 021°48'4 7.2
2018-Apr-15 14:30N 70°04' E 021°53'0 0.0
2018-Apr-15 14:00N 70°04' E 021°53'1 2.1
2018-Apr-15 13:30N 70°03' E 021°50'4 8.6
2018-Apr-15 13:00N 69°59' E 021°50'2 1.9
2018-Apr-15 11:53N 69°57' E 021°53'0 0.0
2018-Apr-15 11:21N 69°57' E 021°53'1 4.1
2018-Apr-15 11:00N 69°58' E 021°49'3 6.4
2018-Apr-15 10:29N 69°59' E 021°40'4 7.4
2018-Apr-15 09:58N 70°01' E 021°30'4 8.5
2018-Apr-15 09:30N 70°02' E 021°19'510.6
2018-Apr-15 09:00N 70°02' E 021°03'2 3.3
2018-Apr-15 08:30N 70°02' E 020°59'0 0.0
2018-Apr-15 08:00N 70°02' E 020°59'0 0.0
2018-Apr-15 07:30N 70°02' E 020°59'0 0.0
2018-Apr-15 07:00N 70°02' E 020°59'0 0.0
2018-Apr-15 06:30N 70°02' E 020°59'0 0.0
2018-Apr-15 06:00N 70°02' E 020°59'0 0.0
2018-Apr-15 05:30N 70°02' E 020°59'0 0.0
2018-Apr-15 05:00N 70°02' E 020°59'0 0.0
2018-Apr-15 04:30N 70°02' E 020°59'0 0.0
2018-Apr-15 04:00N 70°02' E 020°59'0 0.0
2018-Apr-15 03:30N 70°02' E 020°59'0 0.0
2018-Apr-15 03:00N 70°02' E 020°59'0 0.0
2018-Apr-15 02:29N 70°02' E 020°59'0 0.0
2018-Apr-15 02:00N 70°02' E 020°59'0 0.0
2018-Apr-15 01:30N 70°02' E 020°59'0 0.0
2018-Apr-15 01:00N 70°02' E 020°59'0 0.0
2018-Apr-15 00:30N 70°02' E 020°59'0 0.0
2018-Apr-15 00:00N 70°02' E 020°59'0 0.0
2018-Apr-14 23:30N 70°02' E 020°59'0 0.0
2018-Apr-14 23:00N 70°02' E 020°59'0 0.0
2018-Apr-14 22:29N 70°02' E 020°59'0 0.0
2018-Apr-14 22:00N 70°02' E 020°59'0 0.0
2018-Apr-14 21:30N 70°02' E 020°59'0 0.0
2018-Apr-14 21:00N 70°02' E 020°59'0 0.0
2018-Apr-14 20:29N 70°02' E 020°59'0 0.0
2018-Apr-14 20:00N 70°02' E 020°59'0 0.0
2018-Apr-14 19:30N 70°02' E 020°59'0 0.0
2018-Apr-14 19:00N 70°02' E 020°59'0 0.0
2018-Apr-14 18:30N 70°02' E 020°59'0 0.0
2018-Apr-14 18:00N 70°02' E 020°59'0 0.0
2018-Apr-14 17:30N 70°02' E 020°59'0 0.0
2018-Apr-14 16:59N 70°02' E 020°59'0 0.0
2018-Apr-14 16:29N 70°02' E 020°59'0 0.1
2018-Apr-14 16:00N 70°02' E 020°59'3 5.1
2018-Apr-14 15:30N 70°03' E 020°53'612.9
2018-Apr-14 15:00N 70°01' E 020°35'612.7
2018-Apr-14 14:30N 69°59' E 020°17'612.7
2018-Apr-14 14:00N 69°55' E 020°02'712.7
2018-Apr-14 13:29N 69°51' E 019°47'612.6
2018-Apr-14 13:00N 69°49' E 019°31'712.6
2018-Apr-14 12:29N 69°47' E 019°14'612.1
2018-Apr-14 11:59N 69°42' E 019°02'4 8.8
2018-Apr-14 11:30N 69°38' E 018°56'3 5.1
2018-Apr-14 11:00N 69°36' E 018°52'612.2
2018-Apr-14 10:29N 69°33' E 018°36'612.9
2018-Apr-14 09:59N 69°31' E 018°19'611.9
2018-Apr-14 09:30N 69°33' E 018°03'612.3
2018-Apr-14 09:00N 69°36' E 017°48'612.7
2018-Apr-14 08:30N 69°36' E 017°29'612.5
2018-Apr-14 08:00N 69°34' E 017°13'612.5
2018-Apr-14 07:30N 69°30' E 016°59'612.4
2018-Apr-14 06:59N 69°24' E 016°52'510.2
2018-Apr-14 06:29N 69°20' E 017°02'1 2.8
2018-Apr-14 06:00N 69°20' E 017°06'0 0.0
2018-Apr-14 05:30N 69°20' E 017°06'5 9.0
2018-Apr-14 04:58N 69°22' E 016°53'4 7.9
2018-Apr-14 04:30N 69°25' E 016°58'510.1
2018-Apr-14 04:00N 69°25' E 017°13'2 3.2
2018-Apr-14 03:30N 69°25' E 017°17'0 0.5
2018-Apr-14 03:00N 69°25' E 017°16'611.2
2018-Apr-14 02:29N 69°25' E 017°00'4 8.1
2018-Apr-14 01:59N 69°21' E 016°55'4 7.8
2018-Apr-14 01:29N 69°20' E 017°06'0 0.0
2018-Apr-14 01:00N 69°20' E 017°06'2 3.2
2018-Apr-14 00:30N 69°20' E 017°01'4 8.8
2018-Apr-14 00:00N 69°23' E 016°52'510.1
2018-Apr-13 23:30N 69°25' E 017°05'4 8.5
2018-Apr-13 23:00N 69°25' E 017°17'0 0.0
2018-Apr-13 22:29N 69°25' E 017°17'0 0.0
2018-Apr-13 22:00N 69°25' E 017°17'2 5.1
2018-Apr-13 21:30N 69°27' E 017°13'510.0
2018-Apr-13 21:00N 69°32' E 017°16'612.0
2018-Apr-13 20:30N 69°36' E 017°28'612.1
2018-Apr-13 20:00N 69°36' E 017°46'612.1
2018-Apr-13 19:30N 69°33' E 018°01'612.1
2018-Apr-13 19:00N 69°31' E 018°17'612.3
2018-Apr-13 18:30N 69°33' E 018°34'510.8
2018-Apr-13 18:00N 69°34' E 018°49'612.0
2018-Apr-13 17:30N 69°39' E 018°59'612.1
2018-Apr-13 16:59N 69°45' E 019°06'612.0
2018-Apr-13 16:30N 69°48' E 019°21'612.1
2018-Apr-13 16:00N 69°50' E 019°37'612.0
2018-Apr-13 15:30N 69°53' E 019°52'612.4
2018-Apr-13 14:59N 69°57' E 020°07'612.2
2018-Apr-13 14:30N 70°00' E 020°22'612.3
2018-Apr-13 13:59N 70°02' E 020°40'4 8.3
2018-Apr-13 13:30N 70°05' E 020°46'0 0.4
2018-Apr-13 12:59N 70°05' E 020°46'0 0.9
2018-Apr-13 12:30N 70°05' E 020°46'4 8.4
2018-Apr-13 11:59N 70°03' E 020°57'0 0.0
2018-Apr-13 11:30N 70°03' E 020°57'0 0.0
2018-Apr-13 10:59N 70°03' E 020°57'0 0.6
2018-Apr-13 10:30N 70°02' E 020°56'2 3.2
2018-Apr-13 09:58N 70°03' E 021°01'1 1.6
2018-Apr-13 09:29N 70°02' E 020°59'0 0.0
2018-Apr-13 09:00N 70°02' E 020°59'4 7.2
2018-Apr-13 08:30N 69°59' E 021°04'510.9
2018-Apr-13 08:00N 69°55' E 020°51'3 4.8
2018-Apr-13 07:29N 69°57' E 020°45'0 0.0
2018-Apr-13 07:00N 69°57' E 020°45'0 0.0
2018-Apr-13 06:29N 69°57' E 020°45'0 0.1
2018-Apr-13 06:00N 69°57' E 020°45'0 0.1
2018-Apr-13 05:30N 69°57' E 020°46'3 5.6
2018-Apr-13 05:00N 69°59' E 020°42'3 5.3
2018-Apr-13 04:30N 70°02' E 020°42'3 5.7
2018-Apr-13 04:00N 70°03' E 020°49'2 4.8
2018-Apr-13 03:30N 70°05' E 020°46'0 0.0
2018-Apr-13 03:00N 70°05' E 020°46'2 4.6
2018-Apr-13 02:30N 70°08' E 020°47'5 9.7
2018-Apr-13 02:00N 70°11' E 020°56'5 9.9
2018-Apr-13 01:30N 70°14' E 021°09'510.0
2018-Apr-13 01:00N 70°17' E 021°21'510.0
2018-Apr-13 00:30N 70°20' E 021°31'5 9.8
2018-Apr-13 00:00N 70°24' E 021°41'5 9.4
2018-Apr-12 23:30N 70°25' E 021°54'510.1
2018-Apr-12 22:59N 70°27' E 022°10'5 9.7
2018-Apr-12 22:30N 70°28' E 022°23'510.1
2018-Apr-12 22:00N 70°29' E 022°38'5 9.5
2018-Apr-12 21:29N 70°30' E 022°52'4 9.2
2018-Apr-12 21:00N 70°33' E 023°03'5 9.4
2018-Apr-12 20:29N 70°37' E 023°11'5 9.6
2018-Apr-12 20:00N 70°41' E 023°20'5 9.9
2018-Apr-12 19:30N 70°44' E 023°32'5 9.9
2018-Apr-12 19:00N 70°47' E 023°43'5 9.3
2018-Apr-12 18:29N 70°50' E 023°54'5 9.2
2018-Apr-12 17:59N 70°53' E 024°05'5 9.9
2018-Apr-12 17:29N 70°57' E 024°16'5 9.8
2018-Apr-12 17:00N 70°60' E 024°26'4 8.5
2018-Apr-12 16:30N 71°01' E 024°38'5 9.7
2018-Apr-12 16:00N 70°60' E 024°53'5 9.3
2018-Apr-12 15:30N 70°58' E 025°05'5 9.2
2018-Apr-12 14:59N 70°54' E 025°14'4 7.9
2018-Apr-12 14:30N 70°50' E 025°15'0 0.0
2018-Apr-12 14:00N 70°50' E 025°15'0 0.1
2018-Apr-12 13:30N 70°50' E 025°15'0 0.0
2018-Apr-12 12:59N 70°50' E 025°15'0 0.0
2018-Apr-12 12:29N 70°50' E 025°15'3 7.1
2018-Apr-12 12:00N 70°53' E 025°14'4 8.4
2018-Apr-12 11:30N 70°55' E 025°03'4 8.3
2018-Apr-12 11:00N 70°59' E 024°59'611.9
2018-Apr-12 10:30N 71°01' E 024°41'4 8.1
2018-Apr-12 10:00N 70°59' E 024°30'511.0
2018-Apr-12 09:30N 70°54' E 024°23'611.9
2018-Apr-12 09:00N 70°49' E 024°13'611.3
2018-Apr-12 08:30N 70°43' E 024°12'611.6
2018-Apr-12 08:00N 70°38' E 024°10'611.6
2018-Apr-12 07:30N 70°32' E 024°03'611.7
2018-Apr-12 07:00N 70°29' E 023°48'611.9
2018-Apr-12 06:30N 70°25' E 023°37'611.9
2018-Apr-12 06:00N 70°20' E 023°26'611.4
2018-Apr-12 05:30N 70°16' E 023°13'611.8
2018-Apr-12 04:59N 70°14' E 022°56'612.4
2018-Apr-12 04:30N 70°15' E 022°38'612.5
2018-Apr-12 04:00N 70°17' E 022°21'612.6
2018-Apr-12 03:30N 70°20' E 022°04'510.3
2018-Apr-12 03:00N 70°18' E 021°50'4 7.5
2018-Apr-12 02:30N 70°17' E 021°39'4 7.5
2018-Apr-12 02:00N 70°20' E 021°30'612.0
2018-Apr-12 01:30N 70°16' E 021°16'510.7
2018-Apr-12 01:00N 70°12' E 021°06'510.9
2018-Apr-12 00:30N 70°06' E 021°04'5 9.4
2018-Apr-12 00:00N 70°02' E 020°59'0 0.0
2018-Apr-11 23:30N 70°02' E 020°59'0 0.4
2018-Apr-11 23:00N 70°02' E 020°60'4 7.2
2018-Apr-11 22:29N 69°58' E 021°03'510.2
2018-Apr-11 22:00N 69°55' E 020°52'3 4.9
2018-Apr-11 21:29N 69°57' E 020°45'0 0.0
2018-Apr-11 21:00N 69°57' E 020°45'0 0.0
2018-Apr-11 20:30N 69°57' E 020°45'0 0.2
2018-Apr-11 20:00N 69°57' E 020°46'4 9.2
2018-Apr-11 19:30N 70°01' E 020°42'5 9.7
2018-Apr-11 19:00N 70°06' E 020°46'611.3
2018-Apr-11 18:30N 70°11' E 020°54'612.1
2018-Apr-11 18:00N 70°14' E 021°09'510.7
2018-Apr-11 17:30N 70°17' E 021°21'4 8.0
2018-Apr-11 17:00N 70°15' E 021°12'510.4
2018-Apr-11 16:30N 70°10' E 021°07'611.4
2018-Apr-11 15:58N 70°04' E 021°03'2 4.5
2018-Apr-11 15:30N 70°02' E 020°59'0 0.0
2018-Apr-11 15:00N 70°02' E 020°59'2 4.4
2018-Apr-11 14:30N 70°01' E 021°04'5 9.6
2018-Apr-11 14:00N 69°56' E 020°57'4 7.9
2018-Apr-11 13:29N 69°57' E 020°46'0 0.0
2018-Apr-11 13:00N 69°57' E 020°45'0 0.0
2018-Apr-11 12:30N 69°57' E 020°45'0 0.0
2018-Apr-11 12:00N 69°57' E 020°45'1 2.3
2018-Apr-11 11:30N 69°56' E 020°47'4 8.7
2018-Apr-11 11:00N 69°57' E 020°59'5 9.5
2018-Apr-11 10:30N 70°00' E 021°10'4 8.8
2018-Apr-11 10:00N 70°02' E 021°21'5 9.6
2018-Apr-11 09:30N 70°03' E 021°35'611.1
2018-Apr-11 08:57N 70°04' E 021°53'0 0.6
2018-Apr-11 08:29N 70°04' E 021°53'0 0.0
2018-Apr-11 08:00N 70°04' E 021°53'3 6.0
2018-Apr-11 07:30N 70°01' E 021°47'5 9.0
2018-Apr-11 06:59N 69°57' E 021°53'0 0.0
2018-Apr-11 06:07N 69°57' E 021°53'0 0.0
2018-Apr-11 05:56N 69°57' E 021°53'0 0.0
2018-Apr-11 05:30N 69°57' E 021°53'0 0.0
2018-Apr-11 05:00N 69°57' E 021°53'4 7.2
2018-Apr-11 04:29N 69°59' E 021°43'510.1
2018-Apr-11 04:00N 70°01' E 021°30'510.3
2018-Apr-11 03:30N 70°01' E 021°15'510.6
2018-Apr-11 02:59N 70°02' E 020°59'0 0.5
2018-Apr-11 02:30N 70°02' E 020°59'0 0.0
2018-Apr-11 02:00N 70°02' E 020°59'0 0.0
2018-Apr-11 01:30N 70°02' E 020°59'0 0.0
2018-Apr-11 01:00N 70°02' E 020°59'0 0.0
2018-Apr-11 00:30N 70°02' E 020°59'0 0.0
2018-Apr-11 00:00N 70°02' E 020°59'0 0.0
2018-Apr-10 23:29N 70°02' E 020°59'0 0.0
2018-Apr-10 22:58N 70°02' E 020°59'0 0.0
2018-Apr-10 22:30N 70°02' E 020°59'0 0.0
2018-Apr-10 22:00N 70°02' E 020°59'0 0.0
2018-Apr-10 21:30N 70°02' E 020°59'0 0.0
2018-Apr-10 21:00N 70°02' E 020°59'0 0.0
2018-Apr-10 20:30N 70°02' E 020°59'0 0.0
2018-Apr-10 20:00N 70°02' E 020°59'0 0.0
2018-Apr-10 19:29N 70°02' E 020°59'0 0.0
2018-Apr-10 19:00N 70°02' E 020°59'0 0.0
2018-Apr-10 18:29N 70°02' E 020°59'0 0.0
2018-Apr-10 18:00N 70°02' E 020°59'0 0.0
2018-Apr-10 17:29N 70°02' E 020°59'0 0.0
2018-Apr-10 17:00N 70°02' E 020°59'0 0.0
2018-Apr-10 16:30N 70°02' E 020°59'0 0.0
2018-Apr-10 16:00N 70°02' E 020°59'0 0.0
2018-Apr-10 15:29N 70°02' E 020°59'0 0.0
2018-Apr-10 15:00N 70°02' E 020°59'0 0.0
2018-Apr-10 14:30N 70°02' E 020°59'0 0.0
2018-Apr-10 13:59N 70°02' E 020°59'0 0.0
2018-Apr-10 13:30N 70°02' E 020°59'0 0.0
2018-Apr-10 13:00N 70°02' E 020°59'0 0.0
2018-Apr-10 12:30N 70°02' E 020°59'0 0.0
2018-Apr-10 11:59N 70°02' E 020°59'0 0.0
2018-Apr-10 11:28N 70°02' E 020°59'0 0.0
2018-Apr-10 10:59N 70°02' E 020°59'0 0.0
2018-Apr-10 10:30N 70°02' E 020°59'  
Track history (hours):
 
Tides and Currents Weather Stations Pressure Air Temp Water Temp Dewpoint Dewpoint Depression Visibility Wind Speed Wind Dir Waves Ship Positions

Rostein

Last reported at 2018-Apr-20 10:29 UTC. Time now 2018-Apr-20 10:58 UTC.
Position N 70°03' E 020°57'.

Length 57 m; draft 5 m.

Type: Fishing. MMSI: 257210000.

Date/timePositionNaut miles runAvg speedWind from/ knotsBaromVisibWave heightAir tempDewpointWater temp
2018-Apr-20 10:29N 70°03' E 020°57'0 0.0
2018-Apr-20 10:00N 70°03' E 020°57'0 0.0
2018-Apr-20 09:30N 70°03' E 020°57'0 0.8
2018-Apr-20 09:01N 70°03' E 020°56'2 3.2
2018-Apr-20 08:30N 70°02' E 021°00'0 0.7
2018-Apr-20 08:00N 70°02' E 020°59'0 0.1
2018-Apr-20 07:30N 70°02' E 020°59'4 7.5
2018-Apr-20 07:00N 69°58' E 021°03'5 9.7
2018-Apr-20 06:30N 69°55' E 020°52'3 5.3
2018-Apr-20 06:00N 69°57' E 020°45'0 0.0
2018-Apr-20 05:29N 69°57' E 020°45'0 0.0
2018-Apr-20 05:00N 69°57' E 020°45'0 0.0
2018-Apr-20 04:30N 69°57' E 020°45'0 0.0
2018-Apr-20 04:00N 69°57' E 020°45'1 1.7
2018-Apr-20 03:30N 69°56' E 020°44'1 1.1
2018-Apr-20 03:00N 69°56' E 020°46'2 4.4
2018-Apr-20 02:30N 69°55' E 020°52'4 7.1
2018-Apr-20 02:00N 69°58' E 021°00'4 8.4
2018-Apr-20 01:30N 70°00' E 021°10'4 8.4
2018-Apr-20 01:00N 70°02' E 021°21'5 9.5
2018-Apr-20 00:30N 70°03' E 021°35'5 9.8
2018-Apr-20 00:00N 70°03' E 021°49'1 2.5
2018-Apr-19 23:30N 70°04' E 021°53'0 0.0
2018-Apr-19 22:59N 70°04' E 021°53'3 6.1
2018-Apr-19 22:28N 70°01' E 021°47'5 9.6
2018-Apr-19 22:00N 69°57' E 021°53'0 0.1
2018-Apr-19 21:30N 69°57' E 021°53'0 0.0
2018-Apr-19 21:00N 69°57' E 021°53'0 0.2
2018-Apr-19 20:30N 69°57' E 021°53'510.1
2018-Apr-19 20:00N 69°59' E 021°39'611.0
2018-Apr-19 19:29N 70°02' E 021°24'510.3
2018-Apr-19 19:00N 70°02' E 021°10'510.7
2018-Apr-19 18:30N 70°03' E 020°55'611.7
2018-Apr-19 18:00N 70°01' E 020°38'611.6
2018-Apr-19 17:30N 69°60' E 020°22'611.7
2018-Apr-19 17:00N 69°57' E 020°07'611.9
2018-Apr-19 16:30N 69°53' E 019°54'611.6
2018-Apr-19 16:00N 69°50' E 019°40'611.4
2018-Apr-19 15:30N 69°48' E 019°24'611.3
2018-Apr-19 15:00N 69°46' E 019°10'611.3
2018-Apr-19 14:30N 69°41' E 019°01'2 3.7
2018-Apr-19 14:00N 69°39' E 018°58'0 0.0
2018-Apr-19 13:30N 69°39' E 018°58'0 0.0
2018-Apr-19 13:00N 69°39' E 018°58'0 0.0
2018-Apr-19 12:30N 69°39' E 018°58'2 3.9
2018-Apr-19 12:00N 69°37' E 018°56'613.0
2018-Apr-19 11:30N 69°33' E 018°42'612.7
2018-Apr-19 11:00N 69°32' E 018°24'611.7
2018-Apr-19 10:30N 69°31' E 018°07'612.0
2018-Apr-19 09:59N 69°35' E 017°53'611.7
2018-Apr-19 09:30N 69°36' E 017°37'612.0
2018-Apr-19 09:00N 69°35' E 017°21'612.5
2018-Apr-19 08:30N 69°32' E 017°05'612.2
2018-Apr-19 08:00N 69°26' E 016°56'5 9.9
2018-Apr-19 07:30N 69°21' E 016°56'4 7.5
2018-Apr-19 07:00N 69°20' E 017°06'0 0.0
2018-Apr-19 06:30N 69°20' E 017°06'3 5.6
2018-Apr-19 06:00N 69°20' E 016°58'4 8.4
2018-Apr-19 05:30N 69°24' E 016°52'510.0
2018-Apr-19 04:59N 69°29' E 016°57'5 9.7
2018-Apr-19 04:30N 69°32' E 017°06'510.3
2018-Apr-19 04:00N 69°35' E 017°19'5 9.7
2018-Apr-19 03:29N 69°36' E 017°33'510.1
2018-Apr-19 03:00N 69°36' E 017°47'4 8.6
2018-Apr-19 02:30N 69°33' E 017°56'5 9.3
2018-Apr-19 02:00N 69°28' E 017°53'0 0.0
2018-Apr-19 01:30N 69°28' E 017°53'0 0.0
2018-Apr-19 01:00N 69°28' E 017°53'0 0.0
2018-Apr-19 00:30N 69°28' E 017°53'2 4.4
2018-Apr-19 00:00N 69°31' E 017°55'5 9.8
2018-Apr-18 23:27N 69°35' E 017°50'612.3
2018-Apr-18 23:00N 69°36' E 017°34'712.3
2018-Apr-18 22:29N 69°34' E 017°16'612.6
2018-Apr-18 22:00N 69°31' E 017°02'612.1
2018-Apr-18 21:30N 69°26' E 016°54'510.1
2018-Apr-18 21:00N 69°21' E 016°56'3 6.6
2018-Apr-18 20:30N 69°20' E 017°06'0 0.0
2018-Apr-18 19:59N 69°20' E 017°06'2 3.3
2018-Apr-18 19:30N 69°21' E 017°01'4 8.5
2018-Apr-18 19:00N 69°23' E 016°52'5 9.9
2018-Apr-18 18:30N 69°28' E 016°56'5 9.5
2018-Apr-18 18:00N 69°32' E 017°03'510.0
2018-Apr-18 17:29N 69°34' E 017°16'5 9.9
2018-Apr-18 16:59N 69°37' E 017°29'510.2
2018-Apr-18 16:30N 69°36' E 017°43'5 9.4
2018-Apr-18 15:59N 69°34' E 017°56'5 9.9
2018-Apr-18 15:30N 69°29' E 017°53'1 1.3
2018-Apr-18 15:00N 69°28' E 017°53'0 0.0
2018-Apr-18 14:29N 69°28' E 017°53'0 0.0
2018-Apr-18 13:59N 69°28' E 017°53'0 0.0
2018-Apr-18 13:30N 69°28' E 017°53'2 3.9
2018-Apr-18 13:00N 69°30' E 017°55'510.4
2018-Apr-18 12:29N 69°31' E 018°10'612.2
2018-Apr-18 12:00N 69°32' E 018°27'611.7
2018-Apr-18 11:30N 69°33' E 018°43'610.7
2018-Apr-18 10:59N 69°37' E 018°55'4 7.3
2018-Apr-18 10:30N 69°40' E 019°00'612.0
2018-Apr-18 10:00N 69°45' E 019°08'612.2
2018-Apr-18 09:30N 69°48' E 019°24'612.4
2018-Apr-18 09:00N 69°50' E 019°40'612.4
2018-Apr-18 08:30N 69°54' E 019°55'612.4
2018-Apr-18 08:00N 69°58' E 020°09'612.3
2018-Apr-18 07:30N 70°00' E 020°26'612.4
2018-Apr-18 07:00N 70°02' E 020°43'611.8
2018-Apr-18 06:30N 70°04' E 020°60'2 3.7
2018-Apr-18 06:00N 70°02' E 020°59'0 0.0
2018-Apr-18 05:30N 70°02' E 020°59'2 3.3
2018-Apr-18 04:59N 70°01' E 021°04'4 9.2
2018-Apr-18 04:30N 69°57' E 020°58'4 8.8
2018-Apr-18 04:00N 69°56' E 020°46'1 1.7
2018-Apr-18 03:30N 69°57' E 020°45'0 0.0
2018-Apr-18 03:00N 69°57' E 020°45'0 0.0
2018-Apr-18 02:30N 69°57' E 020°45'2 3.6
2018-Apr-18 01:59N 69°55' E 020°49'510.6
2018-Apr-18 01:30N 69°58' E 021°01'611.8
2018-Apr-18 01:00N 70°01' E 021°15'612.0
2018-Apr-18 00:28N 70°03' E 021°33'611.9
2018-Apr-18 00:00N 70°04' E 021°49'1 2.1
2018-Apr-17 23:30N 70°04' E 021°53'0 0.1
2018-Apr-17 23:00N 70°04' E 021°52'4 7.4
2018-Apr-17 22:28N 70°00' E 021°49'3 3.8
2018-Apr-17 21:39N 69°57' E 021°53'0 0.0
2018-Apr-17 21:22N 69°57' E 021°53'0 0.0
2018-Apr-17 20:42N 69°57' E 021°53'1 5.4
2018-Apr-17 20:30N 69°57' E 021°50'612.1
2018-Apr-17 19:59N 70°00' E 021°34'612.3
2018-Apr-17 19:30N 70°03' E 021°18'612.4
2018-Apr-17 19:00N 70°04' E 021°00'510.5
2018-Apr-17 18:30N 70°05' E 020°46'0 0.0
2018-Apr-17 18:00N 70°05' E 020°46'2 3.3
2018-Apr-17 17:30N 70°07' E 020°46'510.2
2018-Apr-17 16:59N 70°11' E 020°55'510.4
2018-Apr-17 16:30N 70°14' E 021°08'510.5
2018-Apr-17 16:00N 70°17' E 021°20'510.2
2018-Apr-17 15:30N 70°20' E 021°31'510.0
2018-Apr-17 15:00N 70°24' E 021°42'5 9.9
2018-Apr-17 14:28N 70°25' E 021°57'510.5
2018-Apr-17 14:00N 70°27' E 022°11'510.4
2018-Apr-17 13:30N 70°28' E 022°27'510.5
2018-Apr-17 13:00N 70°29' E 022°42'5 9.8
2018-Apr-17 12:29N 70°31' E 022°56'5 9.6
2018-Apr-17 12:00N 70°34' E 023°06'510.1
2018-Apr-17 11:28N 70°39' E 023°14'510.1
2018-Apr-17 10:59N 70°42' E 023°24'510.5
2018-Apr-17 10:30N 70°45' E 023°37'510.5
2018-Apr-17 10:00N 70°49' E 023°49'510.7
2018-Apr-17 09:30N 70°52' E 024°01'611.4
2018-Apr-17 09:00N 70°56' E 024°14'611.1
2018-Apr-17 08:30N 70°60' E 024°27'510.2
2018-Apr-17 08:00N 71°01' E 024°42'611.7
2018-Apr-17 07:30N 70°59' E 024°59'510.8
2018-Apr-17 07:00N 70°55' E 025°11'5 9.8
2018-Apr-17 06:30N 70°51' E 025°15'1 1.4
2018-Apr-17 06:00N 70°50' E 025°15'0 0.0
2018-Apr-17 05:30N 70°50' E 025°15'0 0.0
2018-Apr-17 04:59N 70°50' E 025°15'0 0.0
2018-Apr-17 04:30N 70°50' E 025°15'2 4.7
2018-Apr-17 04:00N 70°52' E 025°15'611.7
2018-Apr-17 03:30N 70°57' E 025°06'611.9
2018-Apr-17 03:00N 70°60' E 024°50'612.1
2018-Apr-17 02:29N 71°01' E 024°31'612.3
2018-Apr-17 02:00N 70°57' E 024°18'612.9
2018-Apr-17 01:30N 70°53' E 024°03'612.2
2018-Apr-17 00:59N 70°49' E 023°49'612.4
2018-Apr-17 00:30N 70°45' E 023°35'612.6
2018-Apr-17 00:00N 70°41' E 023°20'612.5
2018-Apr-16 23:29N 70°36' E 023°08'612.6
2018-Apr-16 22:59N 70°31' E 022°57'612.7
2018-Apr-16 22:30N 70°29' E 022°39'712.5
2018-Apr-16 21:59N 70°27' E 022°20'612.2
2018-Apr-16 21:30N 70°26' E 022°03'612.4
2018-Apr-16 21:00N 70°24' E 021°45'611.7
2018-Apr-16 20:30N 70°21' E 021°31'612.1
2018-Apr-16 20:00N 70°17' E 021°18'612.2
2018-Apr-16 19:30N 70°14' E 021°01'712.4
2018-Apr-16 18:58N 70°09' E 020°49'4 8.5
2018-Apr-16 18:30N 70°05' E 020°46'0 0.0
2018-Apr-16 18:00N 70°05' E 020°46'2 3.1
2018-Apr-16 17:30N 70°07' E 020°46'510.2
2018-Apr-16 17:00N 70°11' E 020°55'510.6
2018-Apr-16 16:30N 70°14' E 021°08'510.7
2018-Apr-16 16:00N 70°17' E 021°21'510.4
2018-Apr-16 15:30N 70°21' E 021°31'510.4
2018-Apr-16 15:00N 70°24' E 021°43'510.1
2018-Apr-16 14:29N 70°26' E 021°58'510.7
2018-Apr-16 14:00N 70°27' E 022°13'510.2
2018-Apr-16 13:30N 70°28' E 022°28'510.2
2018-Apr-16 13:00N 70°29' E 022°43'5 9.8
2018-Apr-16 12:30N 70°31' E 022°57'5 9.8
2018-Apr-16 12:00N 70°35' E 023°06'5 9.8
2018-Apr-16 11:29N 70°39' E 023°15'5 9.7
2018-Apr-16 11:00N 70°42' E 023°25'510.0
2018-Apr-16 10:30N 70°45' E 023°37'510.3
2018-Apr-16 10:00N 70°49' E 023°48'510.6
2018-Apr-16 09:30N 70°52' E 024°00'511.0
2018-Apr-16 09:00N 70°56' E 024°13'511.0
2018-Apr-16 08:30N 70°59' E 024°26'510.2
2018-Apr-16 07:58N 71°01' E 024°42'1410.3
2018-Apr-16 06:34N 70°52' E 025°15'1 9.6
2018-Apr-16 06:30N 70°51' E 025°16'1 2.2
2018-Apr-16 06:00N 70°50' E 025°15'0 0.0
2018-Apr-16 05:30N 70°50' E 025°15'0 0.0
2018-Apr-16 05:00N 70°50' E 025°15'2 3.9
2018-Apr-16 04:30N 70°52' E 025°15'611.3
2018-Apr-16 04:00N 70°57' E 025°07'611.4
2018-Apr-16 03:30N 70°60' E 024°52'612.1
2018-Apr-16 03:00N 71°02' E 024°34'612.0
2018-Apr-16 02:30N 70°58' E 024°19'612.5
2018-Apr-16 02:00N 70°54' E 024°05'612.4
2018-Apr-16 01:30N 70°50' E 023°51'612.7
2018-Apr-16 01:00N 70°45' E 023°36'613.1
2018-Apr-16 00:30N 70°41' E 023°22'713.1
2018-Apr-15 23:59N 70°36' E 023°09'612.7
2018-Apr-15 23:30N 70°31' E 022°57'613.0
2018-Apr-15 23:00N 70°29' E 022°39'712.7
2018-Apr-15 22:29N 70°27' E 022°20'612.4
2018-Apr-15 22:00N 70°26' E 022°02'612.2
2018-Apr-15 21:30N 70°24' E 021°45'612.2
2018-Apr-15 21:00N 70°20' E 021°31'712.4
2018-Apr-15 20:28N 70°16' E 021°17'510.1
2018-Apr-15 20:00N 70°11' E 021°12'612.0
2018-Apr-15 19:29N 70°07' E 021°24'611.9
2018-Apr-15 19:00N 70°04' E 021°38'5 9.6
2018-Apr-15 18:30N 70°04' E 021°53'0 0.0
2018-Apr-15 18:00N 70°04' E 021°53'1 2.0
2018-Apr-15 17:30N 70°04' E 021°50'4 8.0
2018-Apr-15 17:00N 69°60' E 021°49'3 3.0
2018-Apr-15 16:05N 69°57' E 021°53'0 0.0
2018-Apr-15 15:27N 69°57' E 021°53'4 8.3
2018-Apr-15 15:00N 70°01' E 021°48'4 7.2
2018-Apr-15 14:30N 70°04' E 021°53'0 0.0
2018-Apr-15 14:00N 70°04' E 021°53'1 2.1
2018-Apr-15 13:30N 70°03' E 021°50'4 8.6
2018-Apr-15 13:00N 69°59' E 021°50'2 1.9
2018-Apr-15 11:53N 69°57' E 021°53'0 0.0
2018-Apr-15 11:21N 69°57' E 021°53'1 4.1
2018-Apr-15 11:00N 69°58' E 021°49'3 6.4
2018-Apr-15 10:29N 69°59' E 021°40'4 7.4
2018-Apr-15 09:58N 70°01' E 021°30'4 8.5
2018-Apr-15 09:30N 70°02' E 021°19'510.6
2018-Apr-15 09:00N 70°02' E 021°03'2 3.3
2018-Apr-15 08:30N 70°02' E 020°59'0 0.0
2018-Apr-15 08:00N 70°02' E 020°59'0 0.0
2018-Apr-15 07:30N 70°02' E 020°59'0 0.0
2018-Apr-15 07:00N 70°02' E 020°59'0 0.0
2018-Apr-15 06:30N 70°02' E 020°59'0 0.0
2018-Apr-15 06:00N 70°02' E 020°59'0 0.0
2018-Apr-15 05:30N 70°02' E 020°59'0 0.0
2018-Apr-15 05:00N 70°02' E 020°59'0 0.0
2018-Apr-15 04:30N 70°02' E 020°59'0 0.0
2018-Apr-15 04:00N 70°02' E 020°59'0 0.0
2018-Apr-15 03:30N 70°02' E 020°59'0 0.0
2018-Apr-15 03:00N 70°02' E 020°59'0 0.0
2018-Apr-15 02:29N 70°02' E 020°59'0 0.0
2018-Apr-15 02:00N 70°02' E 020°59'0 0.0
2018-Apr-15 01:30N 70°02' E 020°59'0 0.0
2018-Apr-15 01:00N 70°02' E 020°59'0 0.0
2018-Apr-15 00:30N 70°02' E 020°59'0 0.0
2018-Apr-15 00:00N 70°02' E 020°59'0 0.0
2018-Apr-14 23:30N 70°02' E 020°59'0 0.0
2018-Apr-14 23:00N 70°02' E 020°59'0 0.0
2018-Apr-14 22:29N 70°02' E 020°59'0 0.0
2018-Apr-14 22:00N 70°02' E 020°59'0 0.0
2018-Apr-14 21:30N 70°02' E 020°59'0 0.0
2018-Apr-14 21:00N 70°02' E 020°59'0 0.0
2018-Apr-14 20:29N 70°02' E 020°59'0 0.0
2018-Apr-14 20:00N 70°02' E 020°59'0 0.0
2018-Apr-14 19:30N 70°02' E 020°59'0 0.0
2018-Apr-14 19:00N 70°02' E 020°59'0 0.0
2018-Apr-14 18:30N 70°02' E 020°59'0 0.0
2018-Apr-14 18:00N 70°02' E 020°59'0 0.0
2018-Apr-14 17:30N 70°02' E 020°59'0 0.0
2018-Apr-14 16:59N 70°02' E 020°59'0 0.0
2018-Apr-14 16:29N 70°02' E 020°59'0 0.1
2018-Apr-14 16:00N 70°02' E 020°59'3 5.1
2018-Apr-14 15:30N 70°03' E 020°53'612.9
2018-Apr-14 15:00N 70°01' E 020°35'612.7
2018-Apr-14 14:30N 69°59' E 020°17'612.7
2018-Apr-14 14:00N 69°55' E 020°02'712.7
2018-Apr-14 13:29N 69°51' E 019°47'612.6
2018-Apr-14 13:00N 69°49' E 019°31'712.6
2018-Apr-14 12:29N 69°47' E 019°14'612.1
2018-Apr-14 11:59N 69°42' E 019°02'4 8.8
2018-Apr-14 11:30N 69°38' E 018°56'3 5.1
2018-Apr-14 11:00N 69°36' E 018°52'612.2
2018-Apr-14 10:29N 69°33' E 018°36'612.9
2018-Apr-14 09:59N 69°31' E 018°19'611.9
2018-Apr-14 09:30N 69°33' E 018°03'612.3
2018-Apr-14 09:00N 69°36' E 017°48'612.7
2018-Apr-14 08:30N 69°36' E 017°29'612.5
2018-Apr-14 08:00N 69°34' E 017°13'612.5
2018-Apr-14 07:30N 69°30' E 016°59'612.4
2018-Apr-14 06:59N 69°24' E 016°52'510.2
2018-Apr-14 06:29N 69°20' E 017°02'1 2.8
2018-Apr-14 06:00N 69°20' E 017°06'0 0.0
2018-Apr-14 05:30N 69°20' E 017°06'5 9.0
2018-Apr-14 04:58N 69°22' E 016°53'4 7.9
2018-Apr-14 04:30N 69°25' E 016°58'510.1
2018-Apr-14 04:00N 69°25' E 017°13'2 3.2
2018-Apr-14 03:30N 69°25' E 017°17'0 0.5
2018-Apr-14 03:00N 69°25' E 017°16'611.2
2018-Apr-14 02:29N 69°25' E 017°00'4 8.1
2018-Apr-14 01:59N 69°21' E 016°55'4 7.8
2018-Apr-14 01:29N 69°20' E 017°06'0 0.0
2018-Apr-14 01:00N 69°20' E 017°06'2 3.2
2018-Apr-14 00:30N 69°20' E 017°01'4 8.8
2018-Apr-14 00:00N 69°23' E 016°52'510.1
2018-Apr-13 23:30N 69°25' E 017°05'4 8.5
2018-Apr-13 23:00N 69°25' E 017°17'0 0.0
2018-Apr-13 22:29N 69°25' E 017°17'0 0.0
2018-Apr-13 22:00N 69°25' E 017°17'2 5.1
2018-Apr-13 21:30N 69°27' E 017°13'510.0
2018-Apr-13 21:00N 69°32' E 017°16'612.0
2018-Apr-13 20:30N 69°36' E 017°28'612.1
2018-Apr-13 20:00N 69°36' E 017°46'612.1
2018-Apr-13 19:30N 69°33' E 018°01'612.1
2018-Apr-13 19:00N 69°31' E 018°17'612.3
2018-Apr-13 18:30N 69°33' E 018°34'510.8
2018-Apr-13 18:00N 69°34' E 018°49'612.0
2018-Apr-13 17:30N 69°39' E 018°59'612.1
2018-Apr-13 16:59N 69°45' E 019°06'612.0
2018-Apr-13 16:30N 69°48' E 019°21'612.1
2018-Apr-13 16:00N 69°50' E 019°37'612.0
2018-Apr-13 15:30N 69°53' E 019°52'612.4
2018-Apr-13 14:59N 69°57' E 020°07'612.2
2018-Apr-13 14:30N 70°00' E 020°22'612.3
2018-Apr-13 13:59N 70°02' E 020°40'4 8.3
2018-Apr-13 13:30N 70°05' E 020°46'0 0.4
2018-Apr-13 12:59N 70°05' E 020°46'0 0.9
2018-Apr-13 12:30N 70°05' E 020°46'4 8.4
2018-Apr-13 11:59N 70°03' E 020°57'0 0.0
2018-Apr-13 11:30N 70°03' E 020°57'0 0.0
2018-Apr-13 10:59N 70°03' E 020°57'0 0.6
2018-Apr-13 10:30N 70°02' E 020°56'2 3.2
2018-Apr-13 09:58N 70°03' E 021°01'1 1.6
2018-Apr-13 09:29N 70°02' E 020°59'0 0.0
2018-Apr-13 09:00N 70°02' E 020°59'4 7.2
2018-Apr-13 08:30N 69°59' E 021°04'510.9
2018-Apr-13 08:00N 69°55' E 020°51'3 4.8
2018-Apr-13 07:29N 69°57' E 020°45'0 0.0
2018-Apr-13 07:00N 69°57' E 020°45'0 0.0
2018-Apr-13 06:29N 69°57' E 020°45'0 0.1
2018-Apr-13 06:00N 69°57' E 020°45'0 0.1
2018-Apr-13 05:30N 69°57' E 020°46'3 5.6
2018-Apr-13 05:00N 69°59' E 020°42'3 5.3
2018-Apr-13 04:30N 70°02' E 020°42'3 5.7
2018-Apr-13 04:00N 70°03' E 020°49'2 4.8
2018-Apr-13 03:30N 70°05' E 020°46'0 0.0
2018-Apr-13 03:00N 70°05' E 020°46'2 4.6
2018-Apr-13 02:30N 70°08' E 020°47'5 9.7
2018-Apr-13 02:00N 70°11' E 020°56'5 9.9
2018-Apr-13 01:30N 70°14' E 021°09'510.0
2018-Apr-13 01:00N 70°17' E 021°21'510.0
2018-Apr-13 00:30N 70°20' E 021°31'5 9.8
2018-Apr-13 00:00N 70°24' E 021°41'5 9.4
2018-Apr-12 23:30N 70°25' E 021°54'510.1
2018-Apr-12 22:59N 70°27' E 022°10'5 9.7
2018-Apr-12 22:30N 70°28' E 022°23'510.1
2018-Apr-12 22:00N 70°29' E 022°38'5 9.5
2018-Apr-12 21:29N 70°30' E 022°52'4 9.2
2018-Apr-12 21:00N 70°33' E 023°03'5 9.4
2018-Apr-12 20:29N 70°37' E 023°11'5 9.6
2018-Apr-12 20:00N 70°41' E 023°20'5 9.9
2018-Apr-12 19:30N 70°44' E 023°32'5 9.9
2018-Apr-12 19:00N 70°47' E 023°43'5 9.3
2018-Apr-12 18:29N 70°50' E 023°54'5 9.2
2018-Apr-12 17:59N 70°53' E 024°05'5 9.9
2018-Apr-12 17:29N 70°57' E 024°16'5 9.8
2018-Apr-12 17:00N 70°60' E 024°26'4 8.5
2018-Apr-12 16:30N 71°01' E 024°38'5 9.7
2018-Apr-12 16:00N 70°60' E 024°53'5 9.3
2018-Apr-12 15:30N 70°58' E 025°05'5 9.2
2018-Apr-12 14:59N 70°54' E 025°14'4 7.9
2018-Apr-12 14:30N 70°50' E 025°15'0 0.0
2018-Apr-12 14:00N 70°50' E 025°15'0 0.1
2018-Apr-12 13:30N 70°50' E 025°15'0 0.0
2018-Apr-12 12:59N 70°50' E 025°15'0 0.0
2018-Apr-12 12:29N 70°50' E 025°15'3 7.1
2018-Apr-12 12:00N 70°53' E 025°14'4 8.4
2018-Apr-12 11:30N 70°55' E 025°03'4 8.3
2018-Apr-12 11:00N 70°59' E 024°59'611.9
2018-Apr-12 10:30N 71°01' E 024°41'4 8.1
2018-Apr-12 10:00N 70°59' E 024°30'511.0
2018-Apr-12 09:30N 70°54' E 024°23'611.9
2018-Apr-12 09:00N 70°49' E 024°13'611.3
2018-Apr-12 08:30N 70°43' E 024°12'611.6
2018-Apr-12 08:00N 70°38' E 024°10'611.6
2018-Apr-12 07:30N 70°32' E 024°03'611.7
2018-Apr-12 07:00N 70°29' E 023°48'611.9
2018-Apr-12 06:30N 70°25' E 023°37'611.9
2018-Apr-12 06:00N 70°20' E 023°26'611.4
2018-Apr-12 05:30N 70°16' E 023°13'611.8
2018-Apr-12 04:59N 70°14' E 022°56'612.4
2018-Apr-12 04:30N 70°15' E 022°38'612.5
2018-Apr-12 04:00N 70°17' E 022°21'612.6
2018-Apr-12 03:30N 70°20' E 022°04'510.3
2018-Apr-12 03:00N 70°18' E 021°50'4 7.5
2018-Apr-12 02:30N 70°17' E 021°39'4 7.5
2018-Apr-12 02:00N 70°20' E 021°30'612.0
2018-Apr-12 01:30N 70°16' E 021°16'510.7
2018-Apr-12 01:00N 70°12' E 021°06'510.9
2018-Apr-12 00:30N 70°06' E 021°04'5 9.4
2018-Apr-12 00:00N 70°02' E 020°59'0 0.0
2018-Apr-11 23:30N 70°02' E 020°59'0 0.4
2018-Apr-11 23:00N 70°02' E 020°60'4 7.2
2018-Apr-11 22:29N 69°58' E 021°03'510.2
2018-Apr-11 22:00N 69°55' E 020°52'3 4.9
2018-Apr-11 21:29N 69°57' E 020°45'0 0.0
2018-Apr-11 21:00N 69°57' E 020°45'0 0.0
2018-Apr-11 20:30N 69°57' E 020°45'0 0.2
2018-Apr-11 20:00N 69°57' E 020°46'4 9.2
2018-Apr-11 19:30N 70°01' E 020°42'5 9.7
2018-Apr-11 19:00N 70°06' E 020°46'611.3
2018-Apr-11 18:30N 70°11' E 020°54'612.1
2018-Apr-11 18:00N 70°14' E 021°09'510.7
2018-Apr-11 17:30N 70°17' E 021°21'4 8.0
2018-Apr-11 17:00N 70°15' E 021°12'510.4
2018-Apr-11 16:30N 70°10' E 021°07'611.4
2018-Apr-11 15:58N 70°04' E 021°03'2 4.5
2018-Apr-11 15:30N 70°02' E 020°59'0 0.0
2018-Apr-11 15:00N 70°02' E 020°59'2 4.4
2018-Apr-11 14:30N 70°01' E 021°04'5 9.6
2018-Apr-11 14:00N 69°56' E 020°57'4 7.9
2018-Apr-11 13:29N 69°57' E 020°46'0 0.0
2018-Apr-11 13:00N 69°57' E 020°45'0 0.0
2018-Apr-11 12:30N 69°57' E 020°45'0 0.0
2018-Apr-11 12:00N 69°57' E 020°45'1 2.3
2018-Apr-11 11:30N 69°56' E 020°47'4 8.7
2018-Apr-11 11:00N 69°57' E 020°59'5 9.5
2018-Apr-11 10:30N 70°00' E 021°10'4 8.8
2018-Apr-11 10:00N 70°02' E 021°21'5 9.6
2018-Apr-11 09:30N 70°03' E 021°35'611.1
2018-Apr-11 08:57N 70°04' E 021°53'0 0.6
2018-Apr-11 08:29N 70°04' E 021°53'0 0.0
2018-Apr-11 08:00N 70°04' E 021°53'3 6.0
2018-Apr-11 07:30N 70°01' E 021°47'5 9.0
2018-Apr-11 06:59N 69°57' E 021°53'0 0.0
2018-Apr-11 06:07N 69°57' E 021°53'0 0.0
2018-Apr-11 05:56N 69°57' E 021°53'0 0.0
2018-Apr-11 05:30N 69°57' E 021°53'0 0.0
2018-Apr-11 05:00N 69°57' E 021°53'4 7.2
2018-Apr-11 04:29N 69°59' E 021°43'510.1
2018-Apr-11 04:00N 70°01' E 021°30'510.3
2018-Apr-11 03:30N 70°01' E 021°15'510.6
2018-Apr-11 02:59N 70°02' E 020°59'0 0.5
2018-Apr-11 02:30N 70°02' E 020°59'0 0.0
2018-Apr-11 02:00N 70°02' E 020°59'0 0.0
2018-Apr-11 01:30N 70°02' E 020°59'0 0.0
2018-Apr-11 01:00N 70°02' E 020°59'0 0.0
2018-Apr-11 00:30N 70°02' E 020°59'0 0.0
2018-Apr-11 00:00N 70°02' E 020°59'0 0.0
2018-Apr-10 23:29N 70°02' E 020°59'0 0.0
2018-Apr-10 22:58N 70°02' E 020°59'0 0.0
2018-Apr-10 22:30N 70°02' E 020°59'0 0.0
2018-Apr-10 22:00N 70°02' E 020°59'0 0.0
2018-Apr-10 21:30N 70°02' E 020°59'0 0.0
2018-Apr-10 21:00N 70°02' E 020°59'0 0.0
2018-Apr-10 20:30N 70°02' E 020°59'0 0.0
2018-Apr-10 20:00N 70°02' E 020°59'0 0.0
2018-Apr-10 19:29N 70°02' E 020°59'0 0.0
2018-Apr-10 19:00N 70°02' E 020°59'0 0.0
2018-Apr-10 18:29N 70°02' E 020°59'0 0.0
2018-Apr-10 18:00N 70°02' E 020°59'0 0.0
2018-Apr-10 17:29N 70°02' E 020°59'0 0.0
2018-Apr-10 17:00N 70°02' E 020°59'0 0.0
2018-Apr-10 16:30N 70°02' E 020°59'0 0.0
2018-Apr-10 16:00N 70°02' E 020°59'0 0.0
2018-Apr-10 15:29N 70°02' E 020°59'0 0.0
2018-Apr-10 15:00N 70°02' E 020°59'0 0.0
2018-Apr-10 14:30N 70°02' E 020°59'0 0.0
2018-Apr-10 13:59N 70°02' E 020°59'0 0.0
2018-Apr-10 13:30N 70°02' E 020°59'0 0.0
2018-Apr-10 13:00N 70°02' E 020°59'0 0.0
2018-Apr-10 12:30N 70°02' E 020°59'0 0.0
2018-Apr-10 11:59N 70°02' E 020°59'0 0.0
2018-Apr-10 11:28N 70°02' E 020°59'0 0.0
2018-Apr-10 10:59N 70°02' E 020°59'0 0.0
2018-Apr-10 10:30N 70°02' E 020°59'  

Dump ship's entire track history